Aeroporto :
LOGIN :

Iscrizione | Disclaimer

   EN    FR    IT 

 










Sommario :    VFR   VFR Marginale   IFR   IFR Intensivo   IFR Molto Intensivo
Visibilità : 
Base nubi : 
>= 8 km
>= 3000ft
5 / 8 km
1000 / 3000 ft
1500m / 5 km
500 / 1000 ft
800 / 1500m
200 / 500 ft
< 800m
< 200 ft
Simboli :   Temporali  Nebbia  Neve Forte  Precipitazioni Forti  Vento > 20 kt
SIGMETs :   Varie  Temporali  Ghiacco  Turbolenza  Onda orograficha  Ceneri Vulcaniche






- Altitudine del aeroporto : 1000 ft
- Codice IATA : PEV


LHPP - Pécs Pogany

ULTIMO METAR :
  • 050545Z 17008KT 9999 RA NSC 18/13 Q1000

METARs OBSOLETI :
  • 050515Z 17008KT CAVOK 19/12 Q1000
  • 050445Z 17007KT CAVOK 18/11 Q0999

TAF TAF LHPP
Valido dal 05 a 06 ore il 05 a 15 ore UTC


050515Z 0506/0515 16008KT CAVOK
PROB30
TEMPO 0506/0512 SHRA TS SCT050CB BKN070
BECMG 0509/0512 19014KT
TEMPO 0512/0515 VRB20G40KT TSRA SQ BKN025CB
PROB40
TEMPO 0512/0515 1500 +TSRA TSGR BKN015CB
BECMG 0512/0515 32007KT



MetMap, La meteo Aeronautica in un colpo d'occhio ! - Copyright ORBIFLY Dicembre 2007 - Disclaimer

ORBIFLY MET'MAP TEAM :

Programmazione e sviluppo : Alexandra Zaïnal
Concezione : Baudouin d'Aumeries
Aiuto per la programmazione : Marc-Olivier Méhu
Supporto tecnico e logistico : Manuel Goepfert
Aiuto per la traduzione : Arnaldo La Scala

Contatto : metmap@orbifly.com




FONTI E CREDITI :

   NOAA